sensor_id;sensor_type;location;lat;lon;timestamp;P1;durP1;ratioP1;P2;durP2;ratioP2
8450;SDS011;4262;50.980;13.892;2023-11-21T00:02:25;16.83;;;4.40;;
8450;SDS011;4262;50.980;13.892;2023-11-21T00:04:52;11.60;;;4.50;;
8450;SDS011;4262;50.980;13.892;2023-11-21T00:07:20;14.10;;;4.83;;
8450;SDS011;4262;50.980;13.892;2023-11-21T00:09:48;9.87;;;4.43;;
8450;SDS011;4262;50.980;13.892;2023-11-21T00:12:15;12.33;;;5.60;;
8450;SDS011;4262;50.980;13.892;2023-11-21T00:14:42;10.97;;;4.57;;
8450;SDS011;4262;50.980;13.892;2023-11-21T00:17:09;14.63;;;4.83;;
8450;SDS011;4262;50.980;13.892;2023-11-21T00:19:36;11.03;;;4.60;;
8450;SDS011;4262;50.980;13.892;2023-11-21T00:22:03;11.13;;;4.60;;
8450;SDS011;4262;50.980;13.892;2023-11-21T00:24:31;9.73;;;4.43;;
8450;SDS011;4262;50.980;13.892;2023-11-21T00:26:58;12.93;;;4.17;;
8450;SDS011;4262;50.980;13.892;2023-11-21T00:29:25;12.90;;;4.80;;
8450;SDS011;4262;50.980;13.892;2023-11-21T00:31:52;14.33;;;4.57;;
8450;SDS011;4262;50.980;13.892;2023-11-21T00:34:18;9.80;;;3.73;;
8450;SDS011;4262;50.980;13.892;2023-11-21T00:36:46;10.27;;;4.03;;
8450;SDS011;4262;50.980;13.892;2023-11-21T00:39:13;8.20;;;3.33;;
8450;SDS011;4262;50.980;13.892;2023-11-21T00:41:41;9.57;;;4.10;;
8450;SDS011;4262;50.980;13.892;2023-11-21T00:44:10;8.37;;;3.37;;
8450;SDS011;4262;50.980;13.892;2023-11-21T00:46:37;9.17;;;3.67;;
8450;SDS011;4262;50.980;13.892;2023-11-21T00:49:04;8.40;;;3.60;;
8450;SDS011;4262;50.980;13.892;2023-11-21T00:51:30;7.60;;;3.37;;
8450;SDS011;4262;50.980;13.892;2023-11-21T00:53:58;11.10;;;4.03;;
8450;SDS011;4262;50.980;13.892;2023-11-21T00:56:25;9.50;;;3.57;;
8450;SDS011;4262;50.980;13.892;2023-11-21T00:58:53;8.23;;;3.60;;
8450;SDS011;4262;50.980;13.892;2023-11-21T01:01:21;10.43;;;4.13;;
8450;SDS011;4262;50.980;13.892;2023-11-21T01:03:49;9.30;;;3.87;;
8450;SDS011;4262;50.980;13.892;2023-11-21T01:06:18;10.03;;;3.73;;
8450;SDS011;4262;50.980;13.892;2023-11-21T01:08:45;9.80;;;4.00;;
8450;SDS011;4262;50.980;13.892;2023-11-21T01:11:12;9.00;;;3.90;;
8450;SDS011;4262;50.980;13.892;2023-11-21T01:13:39;11.10;;;4.87;;
8450;SDS011;4262;50.980;13.892;2023-11-21T01:16:08;15.27;;;4.27;;
8450;SDS011;4262;50.980;13.892;2023-11-21T01:18:35;8.70;;;4.70;;
8450;SDS011;4262;50.980;13.892;2023-11-21T01:21:02;10.10;;;4.20;;
8450;SDS011;4262;50.980;13.892;2023-11-21T01:23:30;11.63;;;4.70;;
8450;SDS011;4262;50.980;13.892;2023-11-21T01:25:57;12.53;;;5.40;;
8450;SDS011;4262;50.980;13.892;2023-11-21T01:28:24;12.70;;;4.93;;
8450;SDS011;4262;50.980;13.892;2023-11-21T01:30:52;11.07;;;4.80;;
8450;SDS011;4262;50.980;13.892;2023-11-21T01:33:23;10.63;;;4.63;;
8450;SDS011;4262;50.980;13.892;2023-11-21T01:35:51;13.60;;;4.83;;
8450;SDS011;4262;50.980;13.892;2023-11-21T01:38:20;10.43;;;5.23;;
8450;SDS011;4262;50.980;13.892;2023-11-21T01:40:47;12.00;;;3.60;;
8450;SDS011;4262;50.980;13.892;2023-11-21T01:43:14;9.30;;;4.23;;
8450;SDS011;4262;50.980;13.892;2023-11-21T01:45:43;8.73;;;4.17;;
8450;SDS011;4262;50.980;13.892;2023-11-21T01:48:10;8.60;;;3.80;;
8450;SDS011;4262;50.980;13.892;2023-11-21T01:50:41;8.73;;;3.23;;
8450;SDS011;4262;50.980;13.892;2023-11-21T01:53:08;11.43;;;4.93;;
8450;SDS011;4262;50.980;13.892;2023-11-21T01:55:38;12.40;;;4.50;;
8450;SDS011;4262;50.980;13.892;2023-11-21T01:58:07;9.20;;;4.17;;
8450;SDS011;4262;50.980;13.892;2023-11-21T02:00:35;7.80;;;3.67;;
8450;SDS011;4262;50.980;13.892;2023-11-21T02:03:04;9.27;;;3.97;;
8450;SDS011;4262;50.980;13.892;2023-11-21T02:05:32;10.33;;;4.17;;
8450;SDS011;4262;50.980;13.892;2023-11-21T02:08:01;11.13;;;4.03;;
8450;SDS011;4262;50.980;13.892;2023-11-21T02:10:28;15.03;;;3.63;;
8450;SDS011;4262;50.980;13.892;2023-11-21T02:12:57;13.03;;;2.93;;
8450;SDS011;4262;50.980;13.892;2023-11-21T02:15:25;7.73;;;3.07;;
8450;SDS011;4262;50.980;13.892;2023-11-21T02:17:54;9.00;;;3.83;;
8450;SDS011;4262;50.980;13.892;2023-11-21T02:20:23;7.77;;;3.63;;
8450;SDS011;4262;50.980;13.892;2023-11-21T02:22:53;8.80;;;3.23;;
8450;SDS011;4262;50.980;13.892;2023-11-21T02:25:23;11.00;;;3.43;;
8450;SDS011;4262;50.980;13.892;2023-11-21T02:27:50;11.43;;;3.57;;
8450;SDS011;4262;50.980;13.892;2023-11-21T02:30:17;7.80;;;3.10;;
8450;SDS011;4262;50.980;13.892;2023-11-21T02:32:45;7.00;;;3.23;;
8450;SDS011;4262;50.980;13.892;2023-11-21T02:35:12;10.17;;;2.83;;
8450;SDS011;4262;50.980;13.892;2023-11-21T02:37:38;8.93;;;3.00;;
8450;SDS011;4262;50.980;13.892;2023-11-21T02:40:09;9.13;;;3.40;;
8450;SDS011;4262;50.980;13.892;2023-11-21T02:42:37;13.23;;;3.90;;
8450;SDS011;4262;50.980;13.892;2023-11-21T02:45:05;9.77;;;3.57;;
8450;SDS011;4262;50.980;13.892;2023-11-21T02:47:33;9.90;;;3.83;;
8450;SDS011;4262;50.980;13.892;2023-11-21T02:50:00;8.73;;;3.20;;
8450;SDS011;4262;50.980;13.892;2023-11-21T02:52:27;10.50;;;3.40;;
8450;SDS011;4262;50.980;13.892;2023-11-21T02:54:54;10.50;;;3.00;;
8450;SDS011;4262;50.980;13.892;2023-11-21T02:57:22;8.77;;;3.87;;
8450;SDS011;4262;50.980;13.892;2023-11-21T02:59:49;12.90;;;3.63;;
8450;SDS011;4262;50.980;13.892;2023-11-21T03:02:16;7.40;;;2.93;;
8450;SDS011;4262;50.980;13.892;2023-11-21T03:04:43;11.30;;;3.50;;
8450;SDS011;4262;50.980;13.892;2023-11-21T03:10:34;8.97;;;3.10;;
8450;SDS011;4262;50.980;13.892;2023-11-21T03:13:02;10.43;;;3.10;;
8450;SDS011;4262;50.980;13.892;2023-11-21T03:15:30;8.00;;;2.80;;
8450;SDS011;4262;50.980;13.892;2023-11-21T03:17:58;8.20;;;3.47;;
8450;SDS011;4262;50.980;13.892;2023-11-21T03:20:25;7.07;;;3.40;;
8450;SDS011;4262;50.980;13.892;2023-11-21T03:22:52;8.63;;;3.40;;
8450;SDS011;4262;50.980;13.892;2023-11-21T03:25:19;8.80;;;3.00;;
8450;SDS011;4262;50.980;13.892;2023-11-21T03:27:47;8.00;;;3.27;;
8450;SDS011;4262;50.980;13.892;2023-11-21T03:30:15;17.07;;;3.90;;
8450;SDS011;4262;50.980;13.892;2023-11-21T03:32:42;12.60;;;3.17;;
8450;SDS011;4262;50.980;13.892;2023-11-21T03:35:09;13.37;;;3.30;;
8450;SDS011;4262;50.980;13.892;2023-11-21T03:37:36;9.07;;;2.90;;
8450;SDS011;4262;50.980;13.892;2023-11-21T03:40:04;7.53;;;3.03;;
8450;SDS011;4262;50.980;13.892;2023-11-21T03:42:33;9.60;;;3.10;;
8450;SDS011;4262;50.980;13.892;2023-11-21T03:45:01;11.13;;;3.10;;
8450;SDS011;4262;50.980;13.892;2023-11-21T03:47:30;7.93;;;3.00;;
8450;SDS011;4262;50.980;13.892;2023-11-21T03:49:57;10.07;;;2.90;;
8450;SDS011;4262;50.980;13.892;2023-11-21T03:52:24;8.03;;;3.50;;
8450;SDS011;4262;50.980;13.892;2023-11-21T03:54:52;20.37;;;3.27;;
8450;SDS011;4262;50.980;13.892;2023-11-21T03:57:20;15.20;;;4.13;;
8450;SDS011;4262;50.980;13.892;2023-11-21T03:59:47;10.50;;;3.57;;
8450;SDS011;4262;50.980;13.892;2023-11-21T04:02:14;9.80;;;3.07;;
8450;SDS011;4262;50.980;13.892;2023-11-21T04:04:42;11.90;;;3.30;;
8450;SDS011;4262;50.980;13.892;2023-11-21T04:07:09;10.07;;;3.73;;
8450;SDS011;4262;50.980;13.892;2023-11-21T04:09:36;7.90;;;3.40;;
8450;SDS011;4262;50.980;13.892;2023-11-21T04:12:03;8.87;;;3.30;;
8450;SDS011;4262;50.980;13.892;2023-11-21T04:14:31;9.90;;;3.47;;
8450;SDS011;4262;50.980;13.892;2023-11-21T04:16:58;10.87;;;3.40;;
8450;SDS011;4262;50.980;13.892;2023-11-21T04:19:25;6.40;;;3.00;;
8450;SDS011;4262;50.980;13.892;2023-11-21T04:21:53;8.00;;;3.50;;
8450;SDS011;4262;50.980;13.892;2023-11-21T04:24:20;8.10;;;4.10;;
8450;SDS011;4262;50.980;13.892;2023-11-21T04:26:47;12.30;;;4.40;;
8450;SDS011;4262;50.980;13.892;2023-11-21T04:29:14;8.10;;;3.03;;
8450;SDS011;4262;50.980;13.892;2023-11-21T04:31:40;8.47;;;3.30;;
8450;SDS011;4262;50.980;13.892;2023-11-21T04:34:08;9.00;;;4.00;;
8450;SDS011;4262;50.980;13.892;2023-11-21T04:36:35;13.97;;;4.60;;
8450;SDS011;4262;50.980;13.892;2023-11-21T04:39:03;8.97;;;3.47;;
8450;SDS011;4262;50.980;13.892;2023-11-21T04:41:32;7.83;;;4.13;;
8450;SDS011;4262;50.980;13.892;2023-11-21T04:43:59;11.17;;;4.33;;
8450;SDS011;4262;50.980;13.892;2023-11-21T04:46:26;10.80;;;4.00;;
8450;SDS011;4262;50.980;13.892;2023-11-21T04:48:53;8.70;;;3.40;;
8450;SDS011;4262;50.980;13.892;2023-11-21T04:51:20;7.83;;;3.40;;
8450;SDS011;4262;50.980;13.892;2023-11-21T04:53:47;12.00;;;4.30;;
8450;SDS011;4262;50.980;13.892;2023-11-21T04:56:15;7.90;;;3.20;;
8450;SDS011;4262;50.980;13.892;2023-11-21T04:58:42;16.27;;;4.07;;
8450;SDS011;4262;50.980;13.892;2023-11-21T05:01:09;9.67;;;3.57;;
8450;SDS011;4262;50.980;13.892;2023-11-21T05:03:37;12.77;;;3.57;;
8450;SDS011;4262;50.980;13.892;2023-11-21T05:06:04;9.63;;;3.20;;
8450;SDS011;4262;50.980;13.892;2023-11-21T05:08:31;15.13;;;3.40;;
8450;SDS011;4262;50.980;13.892;2023-11-21T05:10:59;11.40;;;4.17;;
8450;SDS011;4262;50.980;13.892;2023-11-21T05:13:28;12.17;;;3.67;;
8450;SDS011;4262;50.980;13.892;2023-11-21T05:15:55;8.60;;;3.33;;
8450;SDS011;4262;50.980;13.892;2023-11-21T05:18:22;10.63;;;3.57;;
8450;SDS011;4262;50.980;13.892;2023-11-21T05:20:52;8.90;;;4.03;;
8450;SDS011;4262;50.980;13.892;2023-11-21T05:23:19;14.13;;;3.70;;
8450;SDS011;4262;50.980;13.892;2023-11-21T05:25:45;15.00;;;3.53;;
8450;SDS011;4262;50.980;13.892;2023-11-21T05:28:12;14.20;;;3.90;;
8450;SDS011;4262;50.980;13.892;2023-11-21T05:30:40;9.20;;;4.10;;
8450;SDS011;4262;50.980;13.892;2023-11-21T05:33:07;7.70;;;3.40;;
8450;SDS011;4262;50.980;13.892;2023-11-21T05:35:34;9.50;;;3.70;;
8450;SDS011;4262;50.980;13.892;2023-11-21T05:38:01;9.40;;;3.70;;
8450;SDS011;4262;50.980;13.892;2023-11-21T05:40:28;10.73;;;4.30;;
8450;SDS011;4262;50.980;13.892;2023-11-21T05:42:55;12.00;;;4.10;;
8450;SDS011;4262;50.980;13.892;2023-11-21T05:45:22;8.50;;;3.37;;
8450;SDS011;4262;50.980;13.892;2023-11-21T05:47:50;8.30;;;3.93;;
8450;SDS011;4262;50.980;13.892;2023-11-21T05:50:17;10.27;;;4.07;;
8450;SDS011;4262;50.980;13.892;2023-11-21T05:52:44;14.57;;;4.10;;
8450;SDS011;4262;50.980;13.892;2023-11-21T05:55:13;10.67;;;3.37;;
8450;SDS011;4262;50.980;13.892;2023-11-21T05:57:40;13.07;;;4.30;;
8450;SDS011;4262;50.980;13.892;2023-11-21T06:00:09;13.70;;;5.00;;
8450;SDS011;4262;50.980;13.892;2023-11-21T06:02:43;8.40;;;4.07;;
8450;SDS011;4262;50.980;13.892;2023-11-21T06:05:12;14.37;;;4.27;;
8450;SDS011;4262;50.980;13.892;2023-11-21T06:07:39;12.17;;;4.77;;
8450;SDS011;4262;50.980;13.892;2023-11-21T06:10:07;13.10;;;4.40;;
8450;SDS011;4262;50.980;13.892;2023-11-21T06:12:36;13.33;;;4.00;;
8450;SDS011;4262;50.980;13.892;2023-11-21T06:15:03;10.80;;;3.60;;
8450;SDS011;4262;50.980;13.892;2023-11-21T06:17:32;10.70;;;4.17;;
8450;SDS011;4262;50.980;13.892;2023-11-21T06:20:01;9.33;;;3.97;;
8450;SDS011;4262;50.980;13.892;2023-11-21T06:22:30;13.67;;;4.17;;
8450;SDS011;4262;50.980;13.892;2023-11-21T06:24:57;10.47;;;3.80;;
8450;SDS011;4262;50.980;13.892;2023-11-21T06:27:24;8.10;;;3.90;;
8450;SDS011;4262;50.980;13.892;2023-11-21T06:29:51;11.03;;;3.70;;
8450;SDS011;4262;50.980;13.892;2023-11-21T06:32:18;10.90;;;3.60;;
8450;SDS011;4262;50.980;13.892;2023-11-21T06:34:45;8.97;;;3.87;;
8450;SDS011;4262;50.980;13.892;2023-11-21T06:37:12;9.17;;;4.20;;
8450;SDS011;4262;50.980;13.892;2023-11-21T06:39:40;11.70;;;3.67;;
8450;SDS011;4262;50.980;13.892;2023-11-21T06:42:07;12.60;;;4.83;;
8450;SDS011;4262;50.980;13.892;2023-11-21T06:44:34;14.23;;;5.23;;
8450;SDS011;4262;50.980;13.892;2023-11-21T06:47:03;8.37;;;3.60;;
8450;SDS011;4262;50.980;13.892;2023-11-21T06:49:30;12.10;;;4.40;;
8450;SDS011;4262;50.980;13.892;2023-11-21T06:51:57;9.17;;;4.07;;
8450;SDS011;4262;50.980;13.892;2023-11-21T06:54:24;10.20;;;3.90;;
8450;SDS011;4262;50.980;13.892;2023-11-21T06:56:52;9.80;;;4.30;;
8450;SDS011;4262;50.980;13.892;2023-11-21T06:59:19;12.70;;;4.60;;
8450;SDS011;4262;50.980;13.892;2023-11-21T07:01:46;11.97;;;4.90;;
8450;SDS011;4262;50.980;13.892;2023-11-21T07:04:13;14.63;;;4.20;;
8450;SDS011;4262;50.980;13.892;2023-11-21T07:06:40;14.50;;;5.23;;
8450;SDS011;4262;50.980;13.892;2023-11-21T07:09:08;11.33;;;4.30;;
8450;SDS011;4262;50.980;13.892;2023-11-21T07:11:37;12.30;;;4.17;;
8450;SDS011;4262;50.980;13.892;2023-11-21T07:14:06;20.17;;;5.77;;
8450;SDS011;4262;50.980;13.892;2023-11-21T07:16:34;11.53;;;4.30;;
8450;SDS011;4262;50.980;13.892;2023-11-21T07:19:02;15.80;;;5.30;;
8450;SDS011;4262;50.980;13.892;2023-11-21T07:21:31;16.17;;;5.80;;
8450;SDS011;4262;50.980;13.892;2023-11-21T07:23:58;17.87;;;7.50;;
8450;SDS011;4262;50.980;13.892;2023-11-21T07:26:25;21.37;;;7.53;;
8450;SDS011;4262;50.980;13.892;2023-11-21T07:28:52;18.43;;;6.77;;
8450;SDS011;4262;50.980;13.892;2023-11-21T07:31:20;25.83;;;11.10;;
8450;SDS011;4262;50.980;13.892;2023-11-21T07:33:47;25.27;;;10.53;;
8450;SDS011;4262;50.980;13.892;2023-11-21T07:36:14;17.63;;;7.77;;
8450;SDS011;4262;50.980;13.892;2023-11-21T07:38:44;19.47;;;7.33;;
8450;SDS011;4262;50.980;13.892;2023-11-21T07:41:11;17.57;;;6.50;;
8450;SDS011;4262;50.980;13.892;2023-11-21T07:43:41;19.97;;;8.10;;
8450;SDS011;4262;50.980;13.892;2023-11-21T07:46:08;23.33;;;7.60;;
8450;SDS011;4262;50.980;13.892;2023-11-21T07:48:36;17.27;;;6.03;;
8450;SDS011;4262;50.980;13.892;2023-11-21T07:51:03;25.17;;;6.73;;
8450;SDS011;4262;50.980;13.892;2023-11-21T07:53:30;22.73;;;6.50;;
8450;SDS011;4262;50.980;13.892;2023-11-21T07:55:57;18.80;;;8.30;;
8450;SDS011;4262;50.980;13.892;2023-11-21T07:58:24;20.43;;;8.27;;
8450;SDS011;4262;50.980;13.892;2023-11-21T08:00:51;16.97;;;7.60;;
8450;SDS011;4262;50.980;13.892;2023-11-21T08:03:18;17.73;;;7.33;;
8450;SDS011;4262;50.980;13.892;2023-11-21T08:05:47;21.77;;;8.03;;
8450;SDS011;4262;50.980;13.892;2023-11-21T08:08:15;22.97;;;8.13;;
8450;SDS011;4262;50.980;13.892;2023-11-21T08:10:43;23.37;;;7.40;;
8450;SDS011;4262;50.980;13.892;2023-11-21T08:13:21;16.73;;;7.27;;
8450;SDS011;4262;50.980;13.892;2023-11-21T08:15:49;19.13;;;7.10;;
8450;SDS011;4262;50.980;13.892;2023-11-21T08:18:16;21.07;;;7.07;;
8450;SDS011;4262;50.980;13.892;2023-11-21T08:20:43;19.57;;;7.47;;
8450;SDS011;4262;50.980;13.892;2023-11-21T08:23:14;19.23;;;8.23;;
8450;SDS011;4262;50.980;13.892;2023-11-21T08:25:43;23.27;;;8.07;;
8450;SDS011;4262;50.980;13.892;2023-11-21T08:28:10;24.47;;;7.03;;
8450;SDS011;4262;50.980;13.892;2023-11-21T08:30:37;20.60;;;7.70;;
8450;SDS011;4262;50.980;13.892;2023-11-21T08:33:04;23.80;;;6.83;;
8450;SDS011;4262;50.980;13.892;2023-11-21T08:35:32;19.37;;;8.50;;
8450;SDS011;4262;50.980;13.892;2023-11-21T08:37:59;24.63;;;8.30;;
8450;SDS011;4262;50.980;13.892;2023-11-21T08:40:27;26.13;;;8.43;;
8450;SDS011;4262;50.980;13.892;2023-11-21T08:42:54;18.40;;;7.80;;
8450;SDS011;4262;50.980;13.892;2023-11-21T08:45:21;18.30;;;7.20;;
8450;SDS011;4262;50.980;13.892;2023-11-21T08:47:48;16.63;;;6.90;;
8450;SDS011;4262;50.980;13.892;2023-11-21T08:50:15;21.10;;;7.93;;
8450;SDS011;4262;50.980;13.892;2023-11-21T08:52:43;19.93;;;8.20;;
8450;SDS011;4262;50.980;13.892;2023-11-21T08:55:11;24.30;;;8.07;;
8450;SDS011;4262;50.980;13.892;2023-11-21T08:57:40;19.70;;;9.53;;
8450;SDS011;4262;50.980;13.892;2023-11-21T09:00:10;22.97;;;9.33;;
8450;SDS011;4262;50.980;13.892;2023-11-21T09:02:38;23.50;;;8.53;;
8450;SDS011;4262;50.980;13.892;2023-11-21T09:05:07;34.20;;;10.27;;
8450;SDS011;4262;50.980;13.892;2023-11-21T09:07:34;28.13;;;9.60;;
8450;SDS011;4262;50.980;13.892;2023-11-21T09:10:02;21.00;;;9.10;;
8450;SDS011;4262;50.980;13.892;2023-11-21T09:12:29;28.10;;;8.97;;
8450;SDS011;4262;50.980;13.892;2023-11-21T09:14:59;25.83;;;9.53;;
8450;SDS011;4262;50.980;13.892;2023-11-21T09:17:26;15.73;;;7.60;;
8450;SDS011;4262;50.980;13.892;2023-11-21T09:19:53;26.07;;;9.53;;
8450;SDS011;4262;50.980;13.892;2023-11-21T09:22:19;31.33;;;11.13;;
8450;SDS011;4262;50.980;13.892;2023-11-21T09:24:46;26.67;;;9.60;;
8450;SDS011;4262;50.980;13.892;2023-11-21T09:27:13;27.00;;;9.97;;
8450;SDS011;4262;50.980;13.892;2023-11-21T09:29:40;26.10;;;10.60;;
8450;SDS011;4262;50.980;13.892;2023-11-21T09:32:09;38.57;;;10.93;;
8450;SDS011;4262;50.980;13.892;2023-11-21T09:34:37;30.30;;;10.10;;
8450;SDS011;4262;50.980;13.892;2023-11-21T09:37:05;26.40;;;9.60;;
8450;SDS011;4262;50.980;13.892;2023-11-21T09:39:32;23.17;;;10.70;;
8450;SDS011;4262;50.980;13.892;2023-11-21T09:42:03;24.57;;;10.30;;
8450;SDS011;4262;50.980;13.892;2023-11-21T09:44:36;29.80;;;9.87;;
8450;SDS011;4262;50.980;13.892;2023-11-21T09:47:15;21.43;;;11.70;;
8450;SDS011;4262;50.980;13.892;2023-11-21T09:49:43;20.13;;;9.67;;
8450;SDS011;4262;50.980;13.892;2023-11-21T09:52:18;23.57;;;9.30;;
8450;SDS011;4262;50.980;13.892;2023-11-21T09:54:50;18.30;;;7.27;;
8450;SDS011;4262;50.980;13.892;2023-11-21T09:57:19;16.17;;;8.30;;
8450;SDS011;4262;50.980;13.892;2023-11-21T09:59:49;18.43;;;8.20;;
8450;SDS011;4262;50.980;13.892;2023-11-21T10:02:22;22.30;;;7.73;;
8450;SDS011;4262;50.980;13.892;2023-11-21T10:04:51;18.10;;;7.87;;
8450;SDS011;4262;50.980;13.892;2023-11-21T10:07:20;20.03;;;8.00;;
8450;SDS011;4262;50.980;13.892;2023-11-21T10:09:48;15.90;;;9.00;;
8450;SDS011;4262;50.980;13.892;2023-11-21T10:12:16;14.90;;;7.37;;
8450;SDS011;4262;50.980;13.892;2023-11-21T10:14:46;15.43;;;7.60;;
8450;SDS011;4262;50.980;13.892;2023-11-21T10:17:15;16.27;;;7.47;;
8450;SDS011;4262;50.980;13.892;2023-11-21T10:19:46;17.53;;;8.07;;
8450;SDS011;4262;50.980;13.892;2023-11-21T10:22:14;14.13;;;8.20;;
8450;SDS011;4262;50.980;13.892;2023-11-21T10:24:41;21.33;;;7.40;;
8450;SDS011;4262;50.980;13.892;2023-11-21T10:27:09;17.37;;;8.13;;
8450;SDS011;4262;50.980;13.892;2023-11-21T10:29:35;13.97;;;7.00;;
8450;SDS011;4262;50.980;13.892;2023-11-21T10:32:02;12.23;;;5.43;;
8450;SDS011;4262;50.980;13.892;2023-11-21T10:34:30;11.40;;;4.10;;
8450;SDS011;4262;50.980;13.892;2023-11-21T10:36:59;9.03;;;5.00;;
8450;SDS011;4262;50.980;13.892;2023-11-21T10:39:38;7.93;;;3.80;;
8450;SDS011;4262;50.980;13.892;2023-11-21T10:42:07;10.20;;;4.90;;
8450;SDS011;4262;50.980;13.892;2023-11-21T10:44:35;11.37;;;5.40;;
8450;SDS011;4262;50.980;13.892;2023-11-21T10:47:03;9.83;;;5.17;;
8450;SDS011;4262;50.980;13.892;2023-11-21T10:49:30;11.17;;;6.30;;
8450;SDS011;4262;50.980;13.892;2023-11-21T10:51:57;11.83;;;5.80;;
8450;SDS011;4262;50.980;13.892;2023-11-21T10:54:25;12.07;;;5.93;;
8450;SDS011;4262;50.980;13.892;2023-11-21T10:56:53;11.53;;;5.50;;
8450;SDS011;4262;50.980;13.892;2023-11-21T10:59:24;12.47;;;6.50;;
8450;SDS011;4262;50.980;13.892;2023-11-21T11:01:55;20.00;;;7.17;;
8450;SDS011;4262;50.980;13.892;2023-11-21T11:04:26;15.60;;;7.07;;
8450;SDS011;4262;50.980;13.892;2023-11-21T11:06:54;13.03;;;7.37;;
8450;SDS011;4262;50.980;13.892;2023-11-21T11:09:23;16.20;;;8.20;;
8450;SDS011;4262;50.980;13.892;2023-11-21T11:11:52;17.63;;;9.60;;
8450;SDS011;4262;50.980;13.892;2023-11-21T11:14:19;15.93;;;8.80;;
8450;SDS011;4262;50.980;13.892;2023-11-21T11:16:50;18.07;;;9.63;;
8450;SDS011;4262;50.980;13.892;2023-11-21T11:19:20;15.87;;;9.10;;
8450;SDS011;4262;50.980;13.892;2023-11-21T11:21:48;18.53;;;10.40;;
8450;SDS011;4262;50.980;13.892;2023-11-21T11:24:24;22.33;;;9.47;;
8450;SDS011;4262;50.980;13.892;2023-11-21T11:27:24;16.10;;;9.13;;
8450;SDS011;4262;50.980;13.892;2023-11-21T11:30:04;21.50;;;9.53;;
8450;SDS011;4262;50.980;13.892;2023-11-21T11:32:40;19.47;;;9.93;;
8450;SDS011;4262;50.980;13.892;2023-11-21T11:35:15;18.23;;;10.70;;
8450;SDS011;4262;50.980;13.892;2023-11-21T11:37:46;23.43;;;11.73;;
8450;SDS011;4262;50.980;13.892;2023-11-21T11:40:14;23.37;;;11.57;;
8450;SDS011;4262;50.980;13.892;2023-11-21T11:42:54;20.97;;;10.10;;
8450;SDS011;4262;50.980;13.892;2023-11-21T11:45:23;21.37;;;9.37;;
8450;SDS011;4262;50.980;13.892;2023-11-21T11:47:59;17.07;;;8.80;;
8450;SDS011;4262;50.980;13.892;2023-11-21T11:50:26;15.30;;;7.47;;
8450;SDS011;4262;50.980;13.892;2023-11-21T11:52:53;13.37;;;7.20;;
8450;SDS011;4262;50.980;13.892;2023-11-21T11:55:24;14.63;;;7.87;;
8450;SDS011;4262;50.980;13.892;2023-11-21T11:57:52;13.70;;;7.63;;
8450;SDS011;4262;50.980;13.892;2023-11-21T12:00:21;14.60;;;7.43;;
8450;SDS011;4262;50.980;13.892;2023-11-21T12:02:51;15.70;;;8.27;;
8450;SDS011;4262;50.980;13.892;2023-11-21T12:05:19;15.73;;;7.73;;
8450;SDS011;4262;50.980;13.892;2023-11-21T12:07:47;15.60;;;7.37;;
8450;SDS011;4262;50.980;13.892;2023-11-21T12:10:16;15.80;;;8.30;;
8450;SDS011;4262;50.980;13.892;2023-11-21T12:12:47;14.20;;;8.63;;
8450;SDS011;4262;50.980;13.892;2023-11-21T12:15:14;16.33;;;8.30;;
8450;SDS011;4262;50.980;13.892;2023-11-21T12:17:42;15.10;;;8.20;;
8450;SDS011;4262;50.980;13.892;2023-11-21T12:20:10;15.90;;;8.73;;
8450;SDS011;4262;50.980;13.892;2023-11-21T12:22:42;15.77;;;8.90;;
8450;SDS011;4262;50.980;13.892;2023-11-21T12:25:09;15.73;;;9.13;;
8450;SDS011;4262;50.980;13.892;2023-11-21T12:27:41;16.50;;;10.17;;
8450;SDS011;4262;50.980;13.892;2023-11-21T12:30:13;18.43;;;10.70;;
8450;SDS011;4262;50.980;13.892;2023-11-21T12:32:41;16.97;;;9.67;;
8450;SDS011;4262;50.980;13.892;2023-11-21T12:35:09;20.63;;;9.70;;
8450;SDS011;4262;50.980;13.892;2023-11-21T12:37:37;14.80;;;8.50;;
8450;SDS011;4262;50.980;13.892;2023-11-21T12:40:05;17.90;;;9.20;;
8450;SDS011;4262;50.980;13.892;2023-11-21T12:42:37;16.57;;;8.97;;
8450;SDS011;4262;50.980;13.892;2023-11-21T12:45:09;17.50;;;10.03;;
8450;SDS011;4262;50.980;13.892;2023-11-21T12:47:47;16.50;;;9.33;;
8450;SDS011;4262;50.980;13.892;2023-11-21T12:50:15;17.33;;;8.43;;
8450;SDS011;4262;50.980;13.892;2023-11-21T12:52:49;19.23;;;9.03;;
8450;SDS011;4262;50.980;13.892;2023-11-21T12:55:19;15.70;;;7.97;;
8450;SDS011;4262;50.980;13.892;2023-11-21T12:57:47;19.17;;;10.10;;
8450;SDS011;4262;50.980;13.892;2023-11-21T13:00:17;25.70;;;11.03;;
8450;SDS011;4262;50.980;13.892;2023-11-21T13:02:54;18.33;;;9.47;;
8450;SDS011;4262;50.980;13.892;2023-11-21T13:05:24;19.10;;;9.13;;
8450;SDS011;4262;50.980;13.892;2023-11-21T13:07:52;17.90;;;8.83;;
8450;SDS011;4262;50.980;13.892;2023-11-21T13:10:21;19.07;;;10.90;;
8450;SDS011;4262;50.980;13.892;2023-11-21T13:12:55;18.10;;;8.50;;
8450;SDS011;4262;50.980;13.892;2023-11-21T13:15:23;18.70;;;10.23;;
8450;SDS011;4262;50.980;13.892;2023-11-21T13:17:50;19.67;;;12.70;;
8450;SDS011;4262;50.980;13.892;2023-11-21T13:20:20;23.33;;;12.17;;
8450;SDS011;4262;50.980;13.892;2023-11-21T13:22:48;19.23;;;10.90;;
8450;SDS011;4262;50.980;13.892;2023-11-21T13:25:16;18.63;;;10.40;;
8450;SDS011;4262;50.980;13.892;2023-11-21T13:27:45;22.50;;;12.03;;
8450;SDS011;4262;50.980;13.892;2023-11-21T13:30:13;17.67;;;9.80;;
8450;SDS011;4262;50.980;13.892;2023-11-21T13:32:46;15.63;;;8.33;;
8450;SDS011;4262;50.980;13.892;2023-11-21T13:35:16;18.97;;;9.57;;
8450;SDS011;4262;50.980;13.892;2023-11-21T13:37:48;16.30;;;9.37;;
8450;SDS011;4262;50.980;13.892;2023-11-21T13:40:19;17.87;;;9.63;;
8450;SDS011;4262;50.980;13.892;2023-11-21T13:42:48;20.17;;;11.80;;
8450;SDS011;4262;50.980;13.892;2023-11-21T13:45:19;19.60;;;10.43;;
8450;SDS011;4262;50.980;13.892;2023-11-21T13:47:48;18.30;;;11.17;;
8450;SDS011;4262;50.980;13.892;2023-11-21T13:50:17;18.70;;;10.50;;
8450;SDS011;4262;50.980;13.892;2023-11-21T13:52:49;19.77;;;9.83;;
8450;SDS011;4262;50.980;13.892;2023-11-21T13:55:18;16.77;;;9.20;;
8450;SDS011;4262;50.980;13.892;2023-11-21T13:57:45;13.67;;;7.90;;
8450;SDS011;4262;50.980;13.892;2023-11-21T14:00:15;16.00;;;8.13;;
8450;SDS011;4262;50.980;13.892;2023-11-21T14:03:09;14.90;;;7.83;;
8450;SDS011;4262;50.980;13.892;2023-11-21T14:05:44;17.60;;;9.17;;
8450;SDS011;4262;50.980;13.892;2023-11-21T14:08:12;22.87;;;9.47;;
8450;SDS011;4262;50.980;13.892;2023-11-21T14:10:42;23.10;;;11.00;;
8450;SDS011;4262;50.980;13.892;2023-11-21T14:13:10;17.50;;;9.10;;
8450;SDS011;4262;50.980;13.892;2023-11-21T14:15:38;20.77;;;11.33;;
8450;SDS011;4262;50.980;13.892;2023-11-21T14:18:09;22.17;;;11.27;;
8450;SDS011;4262;50.980;13.892;2023-11-21T14:20:37;21.13;;;11.23;;
8450;SDS011;4262;50.980;13.892;2023-11-21T14:23:05;25.73;;;11.10;;
8450;SDS011;4262;50.980;13.892;2023-11-21T14:25:32;25.87;;;12.40;;
8450;SDS011;4262;50.980;13.892;2023-11-21T14:28:00;24.60;;;10.80;;
8450;SDS011;4262;50.980;13.892;2023-11-21T14:30:28;25.30;;;11.63;;
8450;SDS011;4262;50.980;13.892;2023-11-21T14:32:57;22.10;;;11.40;;
8450;SDS011;4262;50.980;13.892;2023-11-21T14:35:26;23.13;;;11.63;;
8450;SDS011;4262;50.980;13.892;2023-11-21T14:37:53;23.77;;;11.77;;
8450;SDS011;4262;50.980;13.892;2023-11-21T14:40:21;29.80;;;13.30;;
8450;SDS011;4262;50.980;13.892;2023-11-21T14:42:49;23.80;;;11.50;;
8450;SDS011;4262;50.980;13.892;2023-11-21T14:45:18;23.80;;;14.10;;
8450;SDS011;4262;50.980;13.892;2023-11-21T14:47:45;26.73;;;13.93;;
8450;SDS011;4262;50.980;13.892;2023-11-21T14:50:20;29.40;;;14.73;;
8450;SDS011;4262;50.980;13.892;2023-11-21T14:53:02;28.10;;;11.97;;
8450;SDS011;4262;50.980;13.892;2023-11-21T14:55:31;24.47;;;12.47;;
8450;SDS011;4262;50.980;13.892;2023-11-21T14:58:16;20.53;;;11.17;;
8450;SDS011;4262;50.980;13.892;2023-11-21T15:00:52;22.63;;;10.80;;